Time;durP1;ratioP1;P1;durP2;ratioP2;P2;SDS_P1;SDS_P2;PMS_P1;PMS_P2;Temp;Humidity;BMP_temperature;BMP_pressure;BME280_temperature;BME280_humidity;BME280_pressure;Samples;Min_cycle;Max_cycle;Signal;HPM_P1;HPM_P2
2023/09/10 00:00:22;;;;;;;15.40;10.57;;;20.40;99.90;;;;;;5073593;28;20096;-75
2023/09/10 00:02:48;;;;;;;14.23;9.95;;;20.40;99.90;;;;;;5073624;28;20078;-75
2023/09/10 00:05:14;;;;;;;16.80;10.00;;;20.30;99.90;;;;;;5073592;28;20036;-75
2023/09/10 00:07:39;;;;;;;17.05;10.50;;;20.30;99.90;;;;;;5055609;28;20024;-75
2023/09/10 00:10:05;;;;;;;17.92;11.02;;;20.20;99.90;;;;;;5073819;28;20437;-74
2023/09/10 00:12:31;;;;;;;15.93;10.77;;;20.20;99.90;;;;;;5073930;28;20036;-75
2023/09/10 00:14:56;;;;;;;15.40;10.70;;;20.20;99.90;;;;;;5076825;28;20032;-75
2023/09/10 00:17:22;;;;;;;16.95;10.55;;;20.20;99.90;;;;;;5077622;28;20073;-75
2023/09/10 00:19:48;;;;;;;15.40;11.05;;;20.20;99.90;;;;;;5077597;28;20036;-75
2023/09/10 00:22:13;;;;;;;15.55;11.15;;;20.20;99.90;;;;;;5077615;28;20082;-75
2023/09/10 00:24:39;;;;;;;14.02;11.02;;;20.20;99.90;;;;;;5059684;28;20016;-75
2023/09/10 00:27:05;;;;;;;15.18;9.88;;;20.20;99.90;;;;;;5077479;28;20091;-75
2023/09/10 00:29:30;;;;;;;14.35;10.32;;;20.10;99.90;;;;;;5077888;28;20032;-75
2023/09/10 00:31:56;;;;;;;15.15;10.77;;;20.10;99.90;;;;;;5077395;28;20033;-75
2023/09/10 00:34:21;;;;;;;17.55;11.32;;;20.10;99.90;;;;;;5077152;28;20096;-75
2023/09/10 00:36:47;;;;;;;15.70;10.57;;;20.10;99.90;;;;;;5077072;28;20043;-75
2023/09/10 00:39:12;;;;;;;17.95;11.07;;;20.10;99.90;;;;;;5059321;28;20020;-75
2023/09/10 00:41:38;;;;;;;17.58;11.10;;;20.10;99.90;;;;;;5077008;28;20020;-75
2023/09/10 00:44:04;;;;;;;18.05;11.88;;;20.00;99.90;;;;;;5077056;28;20066;-75
2023/09/10 00:46:30;;;;;;;16.10;10.55;;;20.10;99.90;;;;;;5077460;28;20020;-75
2023/09/10 00:48:57;;;;;;;16.92;10.82;;;20.00;99.90;;;;;;5077489;28;20482;-74
2023/09/10 00:51:22;;;;;;;13.85;9.77;;;20.00;99.90;;;;;;5059020;28;20078;-74
2023/09/10 00:53:49;;;;;;;16.13;10.85;;;20.00;99.90;;;;;;5076986;28;20481;-75
2023/09/10 00:56:15;;;;;;;15.25;11.10;;;20.00;99.90;;;;;;5077190;28;20029;-75
2023/09/10 00:58:41;;;;;;;13.50;10.30;;;20.00;99.90;;;;;;5076933;28;20024;-75
2023/09/10 01:01:08;;;;;;;13.75;10.05;;;20.00;99.90;;;;;;5058916;28;20028;-75
2023/09/10 01:03:34;;;;;;;16.58;10.93;;;20.00;99.90;;;;;;5058660;28;20021;-75
2023/09/10 01:06:00;;;;;;;15.75;10.13;;;20.00;99.90;;;;;;5058643;28;20067;-75
2023/09/10 01:08:26;;;;;;;13.77;10.05;;;20.00;99.90;;;;;;5077043;28;20095;-75
2023/09/10 01:11:08;;;;;;;14.85;9.98;;;20.00;99.90;;;;;;5058757;28;20052;-74
2023/09/10 01:13:38;;;;;;;12.48;9.95;;;20.00;99.90;;;;;;5077496;28;20032;-75
2023/09/10 01:16:16;;;;;;;13.40;9.90;;;20.00;99.90;;;;;;5076673;28;20104;-74
2023/09/10 01:18:54;;;;;;;15.07;10.38;;;20.00;99.90;;;;;;5076495;28;20383;-74
2023/09/10 01:21:48;;;;;;;14.57;9.35;;;20.00;99.90;;;;;;5077009;28;20021;-75
2023/09/10 01:24:24;;;;;;;20.38;11.30;;;20.00;99.90;;;;;;5077110;28;20023;-75
2023/09/10 01:26:57;;;;;;;15.50;9.68;;;19.90;99.90;;;;;;5075453;28;20411;-75
2023/09/10 01:29:23;;;;;;;14.32;9.73;;;19.90;99.90;;;;;;5076299;28;20459;-75
2023/09/10 01:31:57;;;;;;;14.20;8.75;;;19.90;99.90;;;;;;5076309;28;20388;-75
2023/09/10 01:34:26;;;;;;;14.70;8.98;;;19.90;99.90;;;;;;5075992;28;20028;-75
2023/09/10 01:37:03;;;;;;;12.15;9.68;;;19.90;99.90;;;;;;5076028;28;20488;-74
2023/09/10 01:39:38;;;;;;;15.55;9.38;;;19.90;99.90;;;;;;5076552;28;20120;-75
2023/09/10 01:42:05;;;;;;;12.40;8.52;;;19.90;99.90;;;;;;5076245;28;20430;-74
2023/09/10 01:44:34;;;;;;;13.57;9.20;;;19.80;99.90;;;;;;5058269;28;20025;-75
2023/09/10 01:47:00;;;;;;;15.80;9.57;;;19.80;99.90;;;;;;5076190;28;20031;-75
2023/09/10 01:49:26;;;;;;;13.40;9.07;;;19.90;99.90;;;;;;5057983;28;20066;-75
2023/09/10 01:51:52;;;;;;;13.90;9.57;;;19.80;99.90;;;;;;5076706;28;20019;-71
2023/09/10 01:54:18;;;;;;;12.02;8.65;;;19.80;99.90;;;;;;5058287;28;20384;-71
2023/09/10 01:56:43;;;;;;;13.00;9.18;;;19.90;99.90;;;;;;5058311;28;20040;-71
2023/09/10 01:59:09;;;;;;;12.95;9.77;;;19.80;99.90;;;;;;5075715;28;20060;-71
2023/09/10 02:01:35;;;;;;;14.60;9.95;;;19.80;99.90;;;;;;5075717;28;20352;-71
2023/09/10 02:04:00;;;;;;;12.00;8.40;;;19.80;99.90;;;;;;5075524;28;20103;-71
2023/09/10 02:06:26;;;;;;;14.07;8.75;;;19.80;99.90;;;;;;5075579;28;20443;-71
2023/09/10 02:08:51;;;;;;;13.85;9.23;;;19.80;99.90;;;;;;5075520;28;20430;-71
2023/09/10 02:11:18;;;;;;;14.70;9.20;;;19.80;99.90;;;;;;5076011;28;20468;-71
2023/09/10 02:13:46;;;;;;;12.48;8.63;;;19.80;99.90;;;;;;5075870;28;20048;-71
2023/09/10 02:16:11;;;;;;;16.48;9.35;;;19.70;99.90;;;;;;5076449;28;20415;-71
2023/09/10 02:18:37;;;;;;;12.98;8.48;;;19.70;99.90;;;;;;5074970;28;20021;-71
2023/09/10 02:21:09;;;;;;;12.90;8.70;;;19.70;99.90;;;;;;5075358;28;20468;-71
2023/09/10 02:23:35;;;;;;;11.77;9.00;;;19.70;99.90;;;;;;5076239;28;20024;-71
2023/09/10 02:26:01;;;;;;;14.57;8.70;;;19.70;99.90;;;;;;5074984;28;20020;-71
2023/09/10 02:28:27;;;;;;;15.57;8.90;;;19.70;99.90;;;;;;5075615;28;20060;-71
2023/09/10 02:30:53;;;;;;;10.93;8.75;;;19.70;99.90;;;;;;5074903;28;20016;-71
2023/09/10 02:33:18;;;;;;;16.65;9.45;;;19.70;99.90;;;;;;5075163;28;20028;-71
2023/09/10 02:35:44;;;;;;;14.00;8.77;;;19.70;99.90;;;;;;5074805;28;20029;-71
2023/09/10 02:38:10;;;;;;;12.98;9.18;;;19.70;99.90;;;;;;5074816;28;20029;-71
2023/09/10 02:40:35;;;;;;;12.68;9.10;;;19.70;99.90;;;;;;5074768;28;20032;-71
2023/09/10 02:43:01;;;;;;;15.57;8.57;;;19.70;99.90;;;;;;5074792;28;20013;-71
2023/09/10 02:45:26;;;;;;;13.57;9.05;;;19.60;99.90;;;;;;5056875;28;20124;-71
2023/09/10 02:47:52;;;;;;;15.25;9.40;;;19.60;99.90;;;;;;5074930;28;20016;-71
2023/09/10 02:50:17;;;;;;;12.43;8.85;;;19.60;99.90;;;;;;5075270;28;20349;-71
2023/09/10 02:52:43;;;;;;;13.35;8.60;;;19.50;99.90;;;;;;5075398;28;20099;-71
2023/09/10 02:55:09;;;;;;;14.57;9.07;;;19.50;99.90;;;;;;5074451;28;20028;-71
2023/09/10 02:57:34;;;;;;;11.32;9.15;;;19.50;99.90;;;;;;5074725;28;20028;-71
2023/09/10 03:00:00;;;;;;;13.68;9.52;;;19.50;99.90;;;;;;5075169;28;20475;-71
2023/09/10 03:02:25;;;;;;;15.07;9.48;;;19.40;99.90;;;;;;5074838;28;20021;-71
2023/09/10 03:04:51;;;;;;;11.52;8.68;;;19.40;99.90;;;;;;5074669;28;20024;-71
2023/09/10 03:07:16;;;;;;;12.77;9.43;;;19.40;99.90;;;;;;5074949;28;20036;-71
2023/09/10 03:09:42;;;;;;;16.30;9.57;;;19.30;99.90;;;;;;5074432;28;20039;-71
2023/09/10 03:12:20;;;;;;;14.50;9.32;;;19.30;99.90;;;;;;5074325;28;20051;-71
2023/09/10 03:14:46;;;;;;;18.73;9.45;;;19.30;99.90;;;;;;5056393;28;20502;-71
2023/09/10 03:17:12;;;;;;;16.65;9.60;;;19.30;99.90;;;;;;5074211;28;20021;-71
2023/09/10 03:19:38;;;;;;;13.63;9.32;;;19.30;99.90;;;;;;5074265;28;20056;-71
2023/09/10 03:22:04;;;;;;;16.13;9.98;;;19.30;99.90;;;;;;5074295;28;20048;-71
2023/09/10 03:24:33;;;;;;;12.32;9.48;;;19.30;99.90;;;;;;5074260;28;20030;-71
2023/09/10 03:26:58;;;;;;;14.68;9.65;;;19.30;99.90;;;;;;5074073;28;20455;-71
2023/09/10 03:29:24;;;;;;;15.40;10.13;;;19.30;99.90;;;;;;5073966;28;20016;-71
2023/09/10 03:31:49;;;;;;;12.18;9.48;;;19.20;99.90;;;;;;5074029;28;20021;-71
2023/09/10 03:34:15;;;;;;;15.32;10.60;;;19.30;99.90;;;;;;5074571;28;20032;-71
2023/09/10 03:36:40;;;;;;;16.35;10.23;;;19.30;99.90;;;;;;5073658;28;20385;-71
2023/09/10 03:39:06;;;;;;;13.55;10.18;;;19.20;99.90;;;;;;5056135;28;20028;-71
2023/09/10 03:41:31;;;;;;;13.38;9.57;;;19.20;99.90;;;;;;5073902;28;20135;-71
2023/09/10 03:43:58;;;;;;;14.68;10.15;;;19.20;99.90;;;;;;5074019;28;20082;-71
2023/09/10 03:46:23;;;;;;;19.15;10.25;;;19.20;99.90;;;;;;5073650;28;20048;-71
2023/09/10 03:48:49;;;;;;;14.43;10.88;;;19.20;99.90;;;;;;5055570;28;20074;-71
2023/09/10 03:51:15;;;;;;;13.85;9.88;;;19.20;99.90;;;;;;5073750;28;20024;-71
2023/09/10 03:53:41;;;;;;;14.23;10.15;;;19.20;99.90;;;;;;5074627;28;20028;-71
2023/09/10 03:56:06;;;;;;;13.68;9.70;;;19.10;99.90;;;;;;5073760;28;20033;-71
2023/09/10 03:58:32;;;;;;;16.02;9.43;;;19.20;99.90;;;;;;5073616;28;20028;-71
2023/09/10 04:00:58;;;;;;;13.95;10.25;;;19.10;99.90;;;;;;5073649;28;20027;-71
2023/09/10 04:03:25;;;;;;;15.02;10.32;;;19.10;99.90;;;;;;5073642;28;20025;-71
2023/09/10 04:05:52;;;;;;;14.27;10.60;;;19.10;99.90;;;;;;5073852;28;20016;-71
2023/09/10 04:08:18;;;;;;;14.50;10.18;;;19.10;99.90;;;;;;5074243;28;20487;-72
2023/09/10 04:10:43;;;;;;;14.48;10.13;;;19.00;99.90;;;;;;5073440;28;20023;-71
2023/09/10 04:13:09;;;;;;;14.98;10.07;;;19.10;99.90;;;;;;5074152;28;20050;-71
2023/09/10 04:15:35;;;;;;;16.90;10.23;;;19.10;99.90;;;;;;5073472;28;20074;-71
2023/09/10 04:18:00;;;;;;;13.88;9.65;;;19.00;99.90;;;;;;5074328;28;20020;-71
2023/09/10 04:20:26;;;;;;;15.25;10.88;;;19.00;99.90;;;;;;5073253;28;20426;-71
2023/09/10 04:22:51;;;;;;;13.15;9.68;;;19.00;99.90;;;;;;5073430;28;20024;-71
2023/09/10 04:25:17;;;;;;;15.50;10.45;;;19.00;99.90;;;;;;5073255;28;20487;-71
2023/09/10 04:27:43;;;;;;;13.18;9.70;;;19.00;99.90;;;;;;5073597;28;20040;-71
2023/09/10 04:30:08;;;;;;;15.40;10.25;;;19.00;99.90;;;;;;5055258;28;20104;-71
2023/09/10 04:32:34;;;;;;;12.48;9.35;;;19.00;99.90;;;;;;5073400;28;20442;-71
2023/09/10 04:34:59;;;;;;;16.10;10.15;;;19.00;99.90;;;;;;5073256;28;20021;-71
2023/09/10 04:37:26;;;;;;;16.63;9.90;;;19.00;99.90;;;;;;5073408;28;20040;-71
2023/09/10 04:39:52;;;;;;;16.27;11.18;;;19.00;99.90;;;;;;5073285;28;20052;-71
2023/09/10 04:42:17;;;;;;;15.20;10.30;;;18.90;99.90;;;;;;5073211;28;20021;-71
2023/09/10 04:44:43;;;;;;;13.43;9.93;;;18.90;99.90;;;;;;5073136;28;20021;-71
2023/09/10 04:47:09;;;;;;;15.07;10.68;;;18.90;99.90;;;;;;5055127;28;20017;-71
2023/09/10 04:49:34;;;;;;;13.93;10.20;;;18.80;99.90;;;;;;5073344;28;20492;-71
2023/09/10 04:52:00;;;;;;;14.35;9.38;;;18.80;99.90;;;;;;5073132;28;20029;-72
2023/09/10 04:54:25;;;;;;;11.95;9.77;;;18.80;99.90;;;;;;5073627;28;20024;-71
2023/09/10 04:56:53;;;;;;;14.48;10.00;;;18.80;99.90;;;;;;5073150;28;20025;-71
2023/09/10 04:59:19;;;;;;;14.10;9.77;;;18.90;99.90;;;;;;5054939;28;20048;-71
2023/09/10 05:01:45;;;;;;;14.27;10.25;;;18.90;99.90;;;;;;5075571;28;20028;-71
2023/09/10 05:04:10;;;;;;;15.52;9.93;;;18.90;99.90;;;;;;5076965;28;20021;-71
2023/09/10 05:06:36;;;;;;;14.25;9.55;;;18.80;99.90;;;;;;5076579;28;20029;-71
2023/09/10 05:09:02;;;;;;;15.20;9.98;;;18.90;99.90;;;;;;5076659;28;20020;-71
2023/09/10 05:11:27;;;;;;;19.30;10.27;;;18.80;99.90;;;;;;5076740;28;20043;-71
2023/09/10 05:13:53;;;;;;;14.75;10.48;;;18.80;99.90;;;;;;5077052;28;20371;-71
2023/09/10 05:16:19;;;;;;;13.30;9.75;;;18.80;99.90;;;;;;5076760;28;20024;-71
2023/09/10 05:18:44;;;;;;;15.18;9.93;;;18.90;99.90;;;;;;5077088;28;20031;-71
2023/09/10 05:21:10;;;;;;;13.07;10.02;;;18.90;99.90;;;;;;5076698;28;20020;-71
2023/09/10 05:23:35;;;;;;;15.15;10.02;;;18.80;99.90;;;;;;5076474;28;20088;-71
2023/09/10 05:26:02;;;;;;;15.95;10.60;;;18.80;99.90;;;;;;5076327;28;20032;-71
2023/09/10 05:28:28;;;;;;;14.23;10.02;;;18.90;99.90;;;;;;5076433;28;20028;-71
2023/09/10 05:30:53;;;;;;;12.57;9.75;;;18.90;99.90;;;;;;5058537;28;20024;-71
2023/09/10 05:33:19;;;;;;;15.63;10.40;;;18.80;99.90;;;;;;5076825;28;20021;-71
2023/09/10 05:35:55;;;;;;;14.27;10.88;;;18.90;99.90;;;;;;5076088;28;20483;-71
2023/09/10 05:38:20;;;;;;;15.50;10.68;;;18.90;99.90;;;;;;5076436;28;20025;-71
2023/09/10 05:40:49;;;;;;;15.32;10.38;;;19.00;99.90;;;;;;5076031;28;20538;-71
2023/09/10 05:43:14;;;;;;;16.02;9.63;;;19.00;99.90;;;;;;5075950;28;20025;-71
2023/09/10 05:45:40;;;;;;;18.55;11.02;;;19.00;99.90;;;;;;5075981;28;20116;-71
2023/09/10 05:48:06;;;;;;;16.30;10.68;;;19.00;99.90;;;;;;5076270;28;20031;-71
2023/09/10 05:50:31;;;;;;;17.63;9.30;;;19.10;99.90;;;;;;5057851;28;20099;-71
2023/09/10 05:52:58;;;;;;;20.23;10.40;;;19.20;99.90;;;;;;5075808;28;20115;-71
2023/09/10 05:55:24;;;;;;;14.55;10.10;;;19.20;99.90;;;;;;5075839;28;20448;-71
2023/09/10 05:57:53;;;;;;;14.05;9.82;;;19.30;99.90;;;;;;5075794;28;20048;-71
2023/09/10 06:00:22;;;;;;;15.35;9.27;;;19.40;99.90;;;;;;5075607;28;20107;-71
2023/09/10 06:02:49;;;;;;;15.57;9.73;;;19.40;99.90;;;;;;5075945;28;20100;-71
2023/09/10 06:05:15;;;;;;;16.15;10.18;;;19.50;99.90;;;;;;5075537;28;20091;-71
2023/09/10 06:07:42;;;;;;;14.38;9.95;;;19.60;99.90;;;;;;5058010;28;20013;-71
2023/09/10 06:10:09;;;;;;;15.57;8.85;;;19.70;99.90;;;;;;5075518;28;20488;-71
2023/09/10 06:12:36;;;;;;;13.00;9.88;;;19.80;99.90;;;;;;5076111;28;20033;-71
2023/09/10 06:15:04;;;;;;;15.30;9.13;;;19.80;99.90;;;;;;5075320;28;20500;-71
2023/09/10 06:17:29;;;;;;;14.07;9.00;;;20.00;99.90;;;;;;5075350;28;20044;-71
2023/09/10 06:19:55;;;;;;;12.77;9.10;;;20.10;99.90;;;;;;5075981;28;20451;-72
2023/09/10 06:22:21;;;;;;;12.23;8.82;;;20.20;99.90;;;;;;5075265;28;20047;-71
2023/09/10 06:24:46;;;;;;;14.02;9.35;;;20.30;99.90;;;;;;5075176;28;20092;-71
2023/09/10 06:27:12;;;;;;;11.48;8.60;;;20.40;99.90;;;;;;5075038;28;20028;-71
2023/09/10 06:29:37;;;;;;;11.52;7.55;;;20.50;99.90;;;;;;5075208;28;20032;-71
2023/09/10 06:32:03;;;;;;;11.68;8.38;;;20.60;99.90;;;;;;5075017;28;20103;-71
2023/09/10 06:34:29;;;;;;;11.55;7.43;;;20.70;99.90;;;;;;5075235;28;20074;-71
2023/09/10 06:36:54;;;;;;;10.70;7.53;;;20.90;99.90;;;;;;5075100;28;20437;-71
2023/09/10 06:39:20;;;;;;;12.05;7.90;;;21.00;99.90;;;;;;5074786;28;20087;-71
2023/09/10 06:41:46;;;;;;;14.63;8.63;;;21.20;99.90;;;;;;5075487;28;20372;-71
2023/09/10 06:44:11;;;;;;;8.60;5.85;;;21.30;99.90;;;;;;5074775;28;20028;-71
2023/09/10 06:46:38;;;;;;;10.27;7.40;;;21.40;99.90;;;;;;5075011;28;20518;-71
2023/09/10 06:49:04;;;;;;;11.38;7.30;;;21.60;99.90;;;;;;5075055;28;20017;-71
2023/09/10 06:51:29;;;;;;;10.30;7.00;;;21.70;99.90;;;;;;5074668;28;20391;-71
2023/09/10 06:53:55;;;;;;;12.63;7.80;;;21.80;99.90;;;;;;5074643;28;20016;-71
2023/09/10 06:56:20;;;;;;;10.88;8.15;;;21.90;99.90;;;;;;5056569;28;20487;-71
2023/09/10 06:58:47;;;;;;;14.13;8.30;;;22.10;99.90;;;;;;5074919;28;20111;-71
2023/09/10 07:01:18;;;;;;;12.77;7.30;;;22.10;99.90;;;;;;5074697;28;20016;-71
2023/09/10 07:03:44;;;;;;;12.10;8.18;;;22.30;99.90;;;;;;5074449;28;20016;-71
2023/09/10 07:06:10;;;;;;;11.02;8.18;;;22.30;99.90;;;;;;5074472;28;20055;-71
2023/09/10 07:08:36;;;;;;;13.43;8.13;;;22.40;99.90;;;;;;5056714;28;20391;-71
2023/09/10 07:11:02;;;;;;;14.65;8.38;;;22.50;99.90;;;;;;5074260;28;20215;-71
2023/09/10 07:13:29;;;;;;;12.57;7.70;;;22.60;99.90;;;;;;5056453;28;20150;-71
2023/09/10 07:15:54;;;;;;;14.82;9.23;;;22.70;99.90;;;;;;5074215;28;20016;-71
2023/09/10 07:18:20;;;;;;;13.30;8.77;;;22.80;99.90;;;;;;5074928;28;20472;-71
2023/09/10 07:20:45;;;;;;;14.57;10.00;;;22.90;99.90;;;;;;5074711;28;20028;-71
2023/09/10 07:23:11;;;;;;;13.07;8.75;;;23.00;99.90;;;;;;5073599;28;20052;-70
2023/09/10 07:25:39;;;;;;;17.90;9.80;;;23.10;99.90;;;;;;5074472;28;20025;-70
2023/09/10 07:28:05;;;;;;;14.73;9.48;;;23.20;99.90;;;;;;5074351;28;20036;-72
2023/09/10 07:30:31;;;;;;;14.73;9.13;;;23.30;99.90;;;;;;5056166;28;20373;-71
2023/09/10 07:32:56;;;;;;;18.25;9.32;;;23.40;99.90;;;;;;5073892;28;20031;-70
2023/09/10 07:35:22;;;;;;;13.13;9.10;;;23.60;99.90;;;;;;5074457;28;20051;-70
2023/09/10 07:37:47;;;;;;;16.00;9.30;;;23.70;99.90;;;;;;5073724;28;20025;-70
2023/09/10 07:40:14;;;;;;;14.73;9.98;;;23.80;99.90;;;;;;5073911;28;20020;-70
2023/09/10 07:42:40;;;;;;;16.25;10.98;;;23.90;99.90;;;;;;5074567;28;20096;-70
2023/09/10 07:45:13;;;;;;;13.77;9.15;;;24.00;99.90;;;;;;5073661;28;20048;-70
2023/09/10 07:47:40;;;;;;;14.75;9.07;;;24.10;99.90;;;;;;5074572;28;20020;-70
2023/09/10 07:50:06;;;;;;;14.63;9.45;;;24.20;99.90;;;;;;5074156;28;20034;-71
2023/09/10 07:52:32;;;;;;;15.85;9.98;;;24.30;99.90;;;;;;5073743;28;20024;-71
2023/09/10 07:54:57;;;;;;;17.45;11.05;;;24.40;99.90;;;;;;5073746;28;20377;-71
2023/09/10 07:57:24;;;;;;;16.55;9.80;;;24.50;99.90;;;;;;5073709;28;20098;-71
2023/09/10 07:59:50;;;;;;;18.85;10.73;;;24.60;99.90;;;;;;5074330;28;20025;-70
2023/09/10 08:02:16;;;;;;;18.92;11.48;;;24.70;99.90;;;;;;5055639;28;20025;-70
2023/09/10 08:04:43;;;;;;;14.95;10.18;;;24.80;99.90;;;;;;5074370;28;20016;-73
2023/09/10 08:07:10;;;;;;;19.17;11.25;;;24.90;99.90;;;;;;5073730;28;20016;-73
2023/09/10 08:09:37;;;;;;;19.98;11.80;;;24.90;99.90;;;;;;5074153;28;20392;-73
2023/09/10 08:12:03;;;;;;;20.80;10.25;;;25.00;99.90;;;;;;5074253;28;20073;-73
2023/09/10 08:14:29;;;;;;;13.95;8.85;;;25.10;99.90;;;;;;5073963;28;20084;-73
2023/09/10 08:16:55;;;;;;;16.50;10.73;;;25.20;99.90;;;;;;5056189;28;20024;-73
2023/09/10 08:19:20;;;;;;;15.70;9.50;;;25.30;99.90;;;;;;5073692;28;20032;-73
2023/09/10 08:21:46;;;;;;;13.75;9.65;;;25.40;99.90;;;;;;5073942;28;20070;-73
2023/09/10 08:24:12;;;;;;;16.60;9.77;;;25.50;99.90;;;;;;5073954;28;20024;-73
2023/09/10 08:26:37;;;;;;;17.63;10.75;;;25.60;99.90;;;;;;5073382;28;20016;-73
2023/09/10 08:29:03;;;;;;;17.98;9.32;;;25.70;99.90;;;;;;5073546;28;20025;-71
2023/09/10 08:31:28;;;;;;;17.63;8.13;;;25.70;99.90;;;;;;5073298;28;20059;-73
2023/09/10 08:33:54;;;;;;;16.80;7.38;;;25.80;99.90;;;;;;5073243;28;20032;-72
2023/09/10 08:36:19;;;;;;;16.42;8.88;;;25.90;99.90;;;;;;5076805;28;20055;-72
2023/09/10 08:38:45;;;;;;;11.52;7.68;;;26.10;99.90;;;;;;5077221;28;20039;-72
2023/09/10 08:41:29;;;;;;;14.52;8.05;;;26.20;99.90;;;;;;5076862;28;20096;-72
2023/09/10 08:43:58;;;;;;;10.93;7.43;;;26.20;99.90;;;;;;5077113;28;20074;-72
2023/09/10 08:46:31;;;;;;;11.55;7.38;;;26.20;99.90;;;;;;5077183;28;20067;-72
2023/09/10 08:48:57;;;;;;;13.57;7.35;;;26.30;99.90;;;;;;5077109;28;20028;-72
2023/09/10 08:51:24;;;;;;;15.05;8.05;;;26.30;99.90;;;;;;5077250;28;20033;-72
2023/09/10 08:53:51;;;;;;;11.25;6.70;;;26.40;99.90;;;;;;5076972;28;20441;-73
2023/09/10 08:56:17;;;;;;;12.30;6.20;;;26.50;99.90;;;;;;5076812;28;20039;-73
2023/09/10 08:58:44;;;;;;;12.13;6.30;;;26.60;99.90;;;;;;5076814;28;20758;-73
2023/09/10 09:01:11;;;;;;;15.38;6.40;;;26.70;99.90;;;;;;5058837;28;20028;-73
2023/09/10 09:03:37;;;;;;;10.98;6.90;;;26.80;99.90;;;;;;5077139;28;20021;-73
2023/09/10 09:06:04;;;;;;;14.25;7.05;;;26.80;99.90;;;;;;5076446;28;20028;-73
2023/09/10 09:08:35;;;;;;;11.40;6.75;;;26.80;99.90;;;;;;5076789;28;20450;-73
2023/09/10 09:11:03;;;;;;;9.63;6.03;;;27.00;99.90;;;;;;5076410;28;20017;-74
2023/09/10 09:13:30;;;;;;;;;;;27.00;99.90;;;;;;5076535;28;20020;-74
2023/09/10 09:15:57;;;;;;;14.13;5.68;;;27.10;99.90;;;;;;5076119;28;20015;-74
2023/09/10 09:18:23;;;;;;;12.00;6.20;;;27.20;99.90;;;;;;5076589;28;20503;-74
2023/09/10 09:20:50;;;;;;;15.13;7.47;;;27.30;99.90;;;;;;5076048;28;20055;-74
2023/09/10 09:24:03;;;;;;;11.23;6.10;;;27.50;99.90;;;;;;5076345;28;20013;-73
2023/09/10 09:26:30;;;;;;;10.60;6.07;;;27.60;99.90;;;;;;5076001;28;20429;-74
2023/09/10 09:28:56;;;;;;;14.38;6.55;;;27.60;99.90;;;;;;5076026;28;20029;-74
2023/09/10 09:31:22;;;;;;;17.23;6.53;;;27.70;99.90;;;;;;5076057;28;20025;-74
2023/09/10 09:33:49;;;;;;;9.35;6.93;;;27.70;99.90;;;;;;5075910;28;20064;-74
2023/09/10 09:36:14;;;;;;;18.80;7.03;;;27.80;99.90;;;;;;5075981;28;20028;-74
2023/09/10 09:38:45;;;;;;;10.15;5.97;;;27.80;99.90;;;;;;5075976;28;20047;-74
2023/09/10 09:41:13;;;;;;;10.70;6.50;;;27.90;99.90;;;;;;5075811;28;20138;-74
2023/09/10 09:43:39;;;;;;;;;;;27.90;99.90;;;;;;5076641;28;20502;-74
2023/09/10 09:46:04;;;;;;;10.23;6.22;;;28.00;99.90;;;;;;5075056;28;19905;-74
2023/09/10 09:48:30;;;;;;;7.53;5.82;;;28.10;99.90;;;;;;5075677;28;20480;-74
2023/09/10 09:50:58;;;;;;;17.15;7.78;;;28.10;99.90;;;;;;5076011;28;20384;-74
2023/09/10 09:53:31;;;;;;;8.75;5.75;;;28.20;99.90;;;;;;5075793;28;20500;-74
2023/09/10 09:55:59;;;;;;;14.43;6.93;;;28.20;99.90;;;;;;5075953;28;20024;-74
2023/09/10 09:58:24;;;;;;;7.78;4.90;;;28.20;99.90;;;;;;5075970;28;20087;-74
2023/09/10 10:00:50;;;;;;;11.50;5.68;;;28.30;99.90;;;;;;5073872;28;20128;-74
2023/09/10 10:03:20;;;;;;;8.85;5.35;;;28.30;99.90;;;;;;5074120;28;20020;-74
2023/09/10 10:05:52;;;;;;;10.70;5.38;;;28.40;99.90;;;;;;5074813;28;20027;-74
2023/09/10 10:08:23;;;;;;;9.00;5.03;;;28.60;99.90;;;;;;5056809;28;20035;-74
2023/09/10 10:10:49;;;;;;;10.30;4.50;;;28.80;99.90;;;;;;5075120;28;20027;-74
2023/09/10 10:13:19;;;;;;;12.80;7.03;;;28.90;99.90;;;;;;5075328;28;20476;-74
2023/09/10 10:15:47;;;;;;;10.52;6.00;;;29.00;99.90;;;;;;5075251;28;20105;-74
2023/09/10 10:18:15;;;;;;;12.25;5.57;;;29.20;99.90;;;;;;5075300;28;20027;-74
2023/09/10 10:20:46;;;;;;;7.05;4.18;;;29.20;99.90;;;;;;5075099;28;20024;-74
2023/09/10 10:23:13;;;;;;;7.97;4.22;;;29.20;99.90;;;;;;5075083;28;20035;-74
2023/09/10 10:25:43;;;;;;;8.00;4.93;;;29.40;99.90;;;;;;5075458;28;20091;-74
2023/09/10 10:28:10;;;;;;;13.90;5.53;;;29.50;99.90;;;;;;5075356;28;20025;-74
2023/09/10 10:30:58;;;;;;;7.28;4.93;;;29.60;99.90;;;;;;5057222;28;20483;-74
2023/09/10 10:33:25;;;;;;;7.72;4.22;;;29.70;99.90;;;;;;5074989;28;20017;-74
2023/09/10 10:36:04;;;;;;;11.25;4.03;;;29.90;99.90;;;;;;5074632;28;20372;-74
2023/09/10 10:38:33;;;;;;;9.77;3.70;;;30.00;99.90;;;;;;5075139;28;20032;-74
2023/09/10 10:41:05;;;;;;;5.68;3.97;;;30.10;99.90;;;;;;5074644;28;20082;-74
2023/09/10 10:43:40;;;;;;;8.82;4.53;;;30.20;99.90;;;;;;5075039;28;20016;-74
2023/09/10 10:46:07;;;;;;;6.70;4.22;;;30.20;99.90;;;;;;5056839;28;20028;-74
2023/09/10 10:48:39;;;;;;;12.88;3.30;;;30.20;99.90;;;;;;5074608;28;20024;-74
2023/09/10 10:51:11;;;;;;;5.18;3.22;;;30.30;99.90;;;;;;5075072;28;20077;-74
2023/09/10 10:53:37;;;;;;;7.82;4.03;;;30.40;99.90;;;;;;5074629;28;20096;-74
2023/09/10 10:56:04;;;;;;;7.68;3.50;;;30.50;99.90;;;;;;5074683;28;20479;-74
2023/09/10 10:58:31;;;;;;;6.55;3.35;;;30.60;99.90;;;;;;5073538;28;20391;-74
2023/09/10 11:00:58;;;;;;;9.50;4.70;;;30.70;99.90;;;;;;5074575;28;20052;-74
2023/09/10 11:03:25;;;;;;;8.52;4.00;;;30.70;99.90;;;;;;5056637;28;20013;-74
2023/09/10 11:05:53;;;;;;;10.88;3.63;;;30.80;99.90;;;;;;5074280;28;20020;-74
2023/09/10 11:08:29;;;;;;;6.13;3.25;;;31.00;99.90;;;;;;5074326;28;20070;-74
2023/09/10 11:10:55;;;;;;;8.02;3.97;;;31.10;99.90;;;;;;5074595;28;20067;-74
2023/09/10 11:13:24;;;;;;;5.90;3.45;;;31.10;99.90;;;;;;5074255;28;20025;-74
2023/09/10 11:16:05;;;;;;;11.20;4.53;;;31.20;99.90;;;;;;5056022;28;20132;-74
2023/09/10 11:18:37;;;;;;;13.20;4.05;;;31.30;99.90;;;;;;5074078;28;20066;-74
2023/09/10 11:21:08;;;;;;;11.23;4.10;;;31.40;99.90;;;;;;5056399;28;20052;-74
2023/09/10 11:23:35;;;;;;;9.30;3.67;;;31.50;99.90;;;;;;5074224;28;20020;-74
2023/09/10 11:26:37;;;;;;;8.35;3.42;;;31.60;99.90;;;;;;5074117;28;20021;-74
2023/09/10 11:29:07;;;;;;;5.93;3.50;;;31.70;99.90;;;;;;5058173;28;20037;-74
2023/09/10 11:31:38;;;;;;;5.30;3.42;;;31.90;99.90;;;;;;5074087;28;20432;-74
2023/09/10 11:34:27;;;;;;;8.40;4.45;;;32.00;99.70;;;;;;5073877;28;20021;-73
2023/09/10 11:36:55;;;;;;;8.50;4.35;;;32.20;99.60;;;;;;5073887;28;20457;-74
2023/09/10 11:39:21;;;;;;;6.68;4.10;;;32.30;99.50;;;;;;5073587;28;20052;-74
2023/09/10 11:41:50;;;;;;;7.55;3.83;;;32.50;98.60;;;;;;5073776;28;20021;-74
2023/09/10 11:44:15;;;;;;;9.15;3.53;;;32.60;98.60;;;;;;5074067;28;20020;-74
2023/09/10 11:46:42;;;;;;;4.53;3.30;;;32.70;99.20;;;;;;5073935;28;20016;-74
2023/09/10 11:49:07;;;;;;;12.60;3.90;;;32.80;98.20;;;;;;5073467;28;20028;-74
2023/09/10 11:51:41;;;;;;;8.55;3.10;;;32.90;97.70;;;;;;5055312;28;20024;-74
2023/09/10 11:54:07;;;;;;;12.13;3.00;;;33.00;97.60;;;;;;5073460;28;20479;-74
2023/09/10 11:56:35;;;;;;;7.38;2.92;;;33.00;96.60;;;;;;5073693;28;20074;-74
2023/09/10 11:59:01;;;;;;;6.72;3.20;;;33.10;96.30;;;;;;5073529;28;20024;-74
2023/09/10 12:01:27;;;;;;;7.88;2.78;;;33.10;96.20;;;;;;5074030;28;20016;-74
2023/09/10 12:03:52;;;;;;;6.47;3.00;;;33.20;96.60;;;;;;5073593;28;20020;-74
2023/09/10 12:06:18;;;;;;;7.80;3.15;;;33.40;96.70;;;;;;5073304;28;20531;-74
2023/09/10 12:08:44;;;;;;;6.13;3.20;;;33.50;96.40;;;;;;5073429;28;20047;-74
2023/09/10 12:11:11;;;;;;;8.60;4.25;;;33.60;96.60;;;;;;5072972;28;20074;-74
2023/09/10 12:13:38;;;;;;;7.03;3.05;;;33.60;95.70;;;;;;5073850;28;20048;-74
2023/09/10 12:16:05;;;;;;;7.80;3.13;;;33.70;95.30;;;;;;5073465;28;20070;-74
2023/09/10 12:18:31;;;;;;;5.78;2.70;;;33.80;95.20;;;;;;5073479;28;20373;-74
2023/09/10 12:20:58;;;;;;;6.50;3.92;;;33.80;94.90;;;;;;5055864;28;20063;-74
2023/09/10 12:23:24;;;;;;;8.43;3.13;;;33.90;94.60;;;;;;5073527;28;20089;-74
2023/09/10 12:25:59;;;;;;;7.05;2.90;;;33.70;94.00;;;;;;5055326;28;20479;-74
2023/09/10 12:28:25;;;;;;;5.13;2.58;;;33.80;94.30;;;;;;5073725;28;20475;-72
2023/09/10 12:30:52;;;;;;;7.40;3.83;;;33.90;94.40;;;;;;5073305;28;20017;-72
2023/09/10 12:33:23;;;;;;;6.75;2.85;;;34.00;93.20;;;;;;5073735;28;20024;-72
2023/09/10 12:35:50;;;;;;;4.80;2.53;;;34.10;93.90;;;;;;5073556;28;20086;-72